Time;durP1;ratioP1;P1;durP2;ratioP2;P2;SDS_P1;SDS_P2;PMS_P1;PMS_P2;Temp;Humidity;BMP_temperature;BMP_pressure;BME280_temperature;BME280_humidity;BME280_pressure;Samples;Min_cycle;Max_cycle;Signal;HPM_P1;HPM_P2
2022/03/06 00:00:48;;;;;;;26.83;15.77;;;;;;;;;;10326090;28;20113;-73
2022/03/06 00:05:48;;;;;;;28.08;12.70;;;;;;;;;;10324069;28;20132;-72
2022/03/06 00:10:49;;;;;;;22.73;13.47;;;;;;;;;;10323962;28;20564;-71
2022/03/06 00:15:49;;;;;;;20.67;12.23;;;;;;;;;;10310310;28;20122;-75
2022/03/06 00:20:49;;;;;;;16.90;10.63;;;;;;;;;;10299710;28;20034;-71
2022/03/06 00:25:50;;;;;;;17.27;10.50;;;;;;;;;;10300047;28;20081;-72
2022/03/06 00:30:50;;;;;;;15.80;10.15;;;;;;;;;;10299267;28;20029;-72
2022/03/06 00:35:50;;;;;;;16.83;9.80;;;;;;;;;;10299886;28;20035;-71
2022/03/06 00:40:51;;;;;;;13.67;10.23;;;;;;;;;;10300075;28;20023;-73
2022/03/06 00:45:51;;;;;;;13.45;7.75;;;;;;;;;;10299922;28;20034;-71
2022/03/06 00:50:53;;;;;;;16.15;9.43;;;;;;;;;;10299820;28;20497;-71
2022/03/06 00:55:53;;;;;;;14.70;9.30;;;;;;;;;;10299887;28;20034;-72
2022/03/06 01:00:53;;;;;;;12.27;7.88;;;;;;;;;;10299279;28;20031;-71
2022/03/06 01:05:54;;;;;;;15.98;10.60;;;;;;;;;;10299046;28;20047;-73
2022/03/06 01:10:54;;;;;;;20.60;10.85;;;;;;;;;;10282781;28;20031;-71
2022/03/06 01:15:54;;;;;;;18.30;12.73;;;;;;;;;;10298798;28;20057;-71
2022/03/06 01:20:55;;;;;;;26.10;15.13;;;;;;;;;;10298834;28;20019;-72
2022/03/06 01:25:55;;;;;;;23.88;13.60;;;;;;;;;;10298779;28;20114;-74
2022/03/06 01:30:56;;;;;;;24.97;14.00;;;;;;;;;;10298810;28;20019;-74
2022/03/06 01:35:56;;;;;;;29.25;15.80;;;;;;;;;;10298705;28;20213;-69
2022/03/06 01:40:56;;;;;;;21.30;13.63;;;;;;;;;;10304117;28;20409;-70
2022/03/06 01:45:57;;;;;;;25.20;16.00;;;;;;;;;;10306314;28;20031;-70
2022/03/06 01:50:57;;;;;;;30.35;17.85;;;;;;;;;;10305901;28;20018;-71
2022/03/06 01:55:57;;;;;;;26.63;17.00;;;;;;;;;;10305669;28;20027;-70
2022/03/06 02:00:57;;;;;;;21.17;14.70;;;;;;;;;;10305826;28;20029;-71
2022/03/06 02:05:58;;;;;;;31.23;18.02;;;;;;;;;;10305268;28;20051;-74
2022/03/06 02:10:58;;;;;;;34.58;21.17;;;;;;;;;;10305472;28;20027;-71
2022/03/06 02:15:58;;;;;;;29.15;18.20;;;;;;;;;;10305301;28;20476;-71
2022/03/06 02:20:59;;;;;;;30.47;19.07;;;;;;;;;;10290333;28;20033;-77
2022/03/06 02:25:59;;;;;;;30.30;17.13;;;;;;;;;;10288287;28;20041;-68
2022/03/06 02:31:00;;;;;;;33.07;17.00;;;;;;;;;;10289667;28;20030;-70
2022/03/06 02:36:00;;;;;;;22.65;13.35;;;;;;;;;;10304406;28;20015;-71
2022/03/06 02:41:01;;;;;;;22.40;12.80;;;;;;;;;;10304210;28;20022;-75
2022/03/06 02:46:01;;;;;;;19.52;11.48;;;;;;;;;;10287596;28;20289;-71
2022/03/06 02:51:01;;;;;;;13.63;8.07;;;;;;;;;;10303192;28;20022;-72
2022/03/06 02:56:02;;;;;;;11.67;7.47;;;;;;;;;;10288612;28;20070;-75
2022/03/06 03:01:03;;;;;;;8.57;6.18;;;;;;;;;;10288282;28;20038;-71
2022/03/06 03:06:05;;;;;;;7.45;6.30;;;;;;;;;;10303164;28;20126;-75
2022/03/06 03:11:06;;;;;;;7.38;6.10;;;;;;;;;;10286914;28;20027;-71
2022/03/06 03:16:06;;;;;;;8.77;7.18;;;;;;;;;;10302661;28;20096;-70
2022/03/06 03:21:07;;;;;;;8.32;6.22;;;;;;;;;;10287835;28;20027;-72
2022/03/06 03:26:07;;;;;;;9.25;7.10;;;;;;;;;;10302567;28;20070;-73
2022/03/06 03:31:07;;;;;;;8.77;6.00;;;;;;;;;;10287016;28;20026;-71
2022/03/06 03:36:08;;;;;;;6.80;4.90;;;;;;;;;;10287155;28;20026;-72
2022/03/06 03:41:08;;;;;;;10.37;6.47;;;;;;;;;;10302220;28;20027;-72
2022/03/06 03:46:08;;;;;;;11.85;7.18;;;;;;;;;;10301549;28;20085;-71
2022/03/06 03:51:09;;;;;;;8.63;5.73;;;;;;;;;;10286555;28;20378;-74
2022/03/06 03:56:09;;;;;;;7.78;6.25;;;;;;;;;;10285163;28;20337;-71
2022/03/06 04:01:09;;;;;;;7.03;5.10;;;;;;;;;;10300817;28;20818;-71
2022/03/06 04:06:10;;;;;;;7.35;5.38;;;;;;;;;;10300159;28;20050;-71
2022/03/06 04:11:11;;;;;;;8.02;6.55;;;;;;;;;;10285764;28;20031;-71
2022/03/06 04:16:11;;;;;;;7.18;5.10;;;;;;;;;;10285775;28;20482;-72
2022/03/06 04:21:11;;;;;;;4.28;3.47;;;;;;;;;;10285123;28;20039;-71
2022/03/06 04:26:11;;;;;;;10.45;6.13;;;;;;;;;;10300021;28;20023;-71
2022/03/06 04:31:12;;;;;;;7.87;5.03;;;;;;;;;;10300182;28;20023;-71
2022/03/06 04:36:13;;;;;;;7.18;5.88;;;;;;;;;;10300146;28;20708;-69
2022/03/06 04:41:13;;;;;;;10.52;6.50;;;;;;;;;;10285034;28;20031;-71
2022/03/06 04:46:13;;;;;;;6.10;4.30;;;;;;;;;;10299658;28;20027;-71
2022/03/06 04:51:14;;;;;;;6.32;4.30;;;;;;;;;;10284696;28;20035;-71
2022/03/06 04:56:14;;;;;;;7.67;4.93;;;;;;;;;;10299407;28;20081;-71
2022/03/06 05:01:14;;;;;;;6.60;4.63;;;;;;;;;;10299359;28;20086;-69
2022/03/06 05:06:14;;;;;;;7.97;6.10;;;;;;;;;;10298908;28;20299;-70
2022/03/06 05:11:15;;;;;;;9.18;6.20;;;;;;;;;;10298834;28;20031;-70
2022/03/06 05:16:15;;;;;;;8.35;6.95;;;;;;;;;;10290304;28;20027;-72
2022/03/06 05:21:16;;;;;;;8.88;6.75;;;;;;;;;;10292219;28;20106;-72
2022/03/06 05:26:16;;;;;;;6.95;5.85;;;;;;;;;;10291750;28;20452;-71
2022/03/06 05:31:18;;;;;;;5.68;5.10;;;;;;;;;;10315753;28;20500;-72
2022/03/06 05:36:18;;;;;;;7.15;4.15;;;;;;;;;;10330659;28;20034;-71
2022/03/06 05:41:19;;;;;;;8.77;6.80;;;;;;;;;;10327351;28;20035;-71
2022/03/06 05:46:19;;;;;;;8.73;6.93;;;;;;;;;;10313370;28;20076;-72
2022/03/06 05:51:20;;;;;;;9.23;7.20;;;;;;;;;;10329780;28;20030;-73
2022/03/06 05:56:20;;;;;;;10.23;7.38;;;;;;;;;;10288768;28;20082;-71
2022/03/06 06:01:20;;;;;;;9.82;7.40;;;;;;;;;;10294036;28;20026;-71
2022/03/06 06:06:21;;;;;;;8.47;7.23;;;;;;;;;;10305290;28;20154;-72
2022/03/06 06:11:21;;;;;;;10.38;6.85;;;;;;;;;;10342622;28;20556;-74
2022/03/06 06:16:21;;;;;;;12.15;7.88;;;;;;;;;;10328848;28;20407;-72
2022/03/06 06:21:21;;;;;;;9.38;7.38;;;;;;;;;;10329556;28;20366;-73
2022/03/06 06:26:24;;;;;;;14.18;7.28;;;;;;;;;;10327737;28;20110;-69
2022/03/06 06:31:25;;;;;;;10.05;6.53;;;;;;;;;;10328348;28;20022;-74
2022/03/06 06:36:25;;;;;;;9.05;6.10;;;;;;;;;;10329514;28;20022;-72
2022/03/06 06:41:25;;;;;;;8.75;5.93;;;;;;;;;;10328368;28;20416;-74
2022/03/06 06:46:26;;;;;;;13.48;8.15;;;;;;;;;;10328045;28;20045;-72
2022/03/06 06:51:27;;;;;;;8.73;7.30;;;;;;;;;;10314293;28;20383;-74
2022/03/06 06:56:27;;;;;;;9.75;6.40;;;;;;;;;;10303648;28;20109;-74
2022/03/06 07:01:28;;;;;;;10.80;5.85;;;;;;;;;;10289816;28;20110;-74
2022/03/06 07:06:28;;;;;;;10.45;7.07;;;;;;;;;;10303422;28;20059;-75
2022/03/06 07:11:28;;;;;;;8.27;5.63;;;;;;;;;;10290010;28;20026;-74
2022/03/06 07:16:28;;;;;;;8.63;6.47;;;;;;;;;;10291370;28;20030;-73
2022/03/06 07:21:29;;;;;;;10.93;5.88;;;;;;;;;;10289685;28;20038;-73
2022/03/06 07:26:29;;;;;;;6.17;5.57;;;;;;;;;;10286027;28;20033;-76
2022/03/06 07:31:30;;;;;;;8.17;5.83;;;;;;;;;;10285956;28;20290;-76
2022/03/06 07:36:30;;;;;;;6.72;6.03;;;;;;;;;;10285207;28;20896;-72
2022/03/06 07:41:30;;;;;;;6.10;4.07;;;;;;;;;;10321402;28;20034;-75
2022/03/06 07:46:30;;;;;;;5.50;4.97;;;;;;;;;;10324957;28;20503;-72
2022/03/06 07:51:31;;;;;;;5.00;4.28;;;;;;;;;;10324552;28;20030;-74
2022/03/06 07:56:32;;;;;;;8.18;5.22;;;;;;;;;;10328095;28;20496;-77
2022/03/06 08:01:32;;;;;;;7.25;5.05;;;;;;;;;;10326613;28;20409;-71
2022/03/06 08:06:32;;;;;;;10.02;5.18;;;;;;;;;;10325752;28;20042;-75
2022/03/06 08:11:33;;;;;;;6.05;4.57;;;;;;;;;;10326714;28;20022;-72
2022/03/06 08:16:33;;;;;;;9.77;4.05;;;;;;;;;;10326842;28;20034;-70
2022/03/06 08:21:33;;;;;;;7.68;4.75;;;;;;;;;;10325413;28;20045;-71
2022/03/06 08:26:34;;;;;;;8.93;4.93;;;;;;;;;;10326660;28;20034;-77
2022/03/06 08:31:36;;;;;;;4.53;3.75;;;;;;;;;;10324232;28;20261;-73
2022/03/06 08:36:37;;;;;;;5.22;4.68;;;;;;;;;;10325791;28;20023;-79
2022/03/06 08:41:38;;;;;;;7.70;4.93;;;;;;;;;;10326194;28;20096;-75
2022/03/06 08:46:38;;;;;;;5.75;4.53;;;;;;;;;;10325501;28;20459;-76
2022/03/06 08:51:39;;;;;;;9.30;4.55;;;;;;;;;;10325935;28;20038;-76
2022/03/06 08:56:39;;;;;;;5.22;4.72;;;;;;;;;;10325308;28;20153;-75
2022/03/06 09:01:39;;;;;;;7.63;5.10;;;;;;;;;;10326037;28;20488;-76
2022/03/06 09:06:41;;;;;;;6.20;5.07;;;;;;;;;;10326110;28;20138;-79
2022/03/06 09:11:41;;;;;;;5.55;4.88;;;;;;;;;;10326058;28;20019;-71
2022/03/06 09:16:42;;;;;;;7.60;5.30;;;;;;;;;;10324988;28;20023;-74
2022/03/06 09:21:43;;;;;;;9.48;5.70;;;;;;;;;;10326406;28;20026;-73
2022/03/06 09:26:43;;;;;;;9.13;5.65;;;;;;;;;;10325350;28;20414;-72
2022/03/06 09:31:44;;;;;;;6.13;4.53;;;;;;;;;;10326153;28;20057;-71
2022/03/06 09:36:45;;;;;;;7.90;5.57;;;;;;;;;;10325674;28;20026;-76
2022/03/06 09:41:47;;;;;;;7.72;4.78;;;;;;;;;;10323982;28;20121;-72
2022/03/06 09:46:48;;;;;;;7.82;5.53;;;;;;;;;;10323582;28;20050;-72
2022/03/06 09:51:48;;;;;;;6.55;4.35;;;;;;;;;;10324719;28;20109;-70
2022/03/06 09:56:48;;;;;;;6.28;5.43;;;;;;;;;;10322218;28;20125;-76
2022/03/06 10:01:49;;;;;;;9.77;5.47;;;;;;;;;;10329352;28;20022;-72
2022/03/06 10:06:59;;;;;;;7.80;6.27;;;;;;;;;;10332652;28;20057;-71
2022/03/06 10:12:00;;;;;;;10.65;6.10;;;;;;;;;;10332668;28;20481;-72
2022/03/06 10:17:07;;;;;;;7.63;5.38;;;;;;;;;;10331125;28;20030;-73
2022/03/06 10:22:11;;;;;;;8.10;5.87;;;;;;;;;;10330796;28;20038;-71
2022/03/06 10:27:11;;;;;;;10.32;7.35;;;;;;;;;;10330320;28;20026;-69
2022/03/06 10:32:12;;;;;;;11.07;8.68;;;;;;;;;;10329433;28;20030;-71
2022/03/06 10:37:12;;;;;;;10.63;7.20;;;;;;;;;;10330721;28;20030;-72
2022/03/06 10:42:20;;;;;;;8.55;6.80;;;;;;;;;;10328474;28;20015;-71
2022/03/06 10:47:20;;;;;;;7.90;6.72;;;;;;;;;;10330052;28;20030;-71
2022/03/06 10:52:21;;;;;;;4.17;3.77;;;;;;;;;;10329847;28;20382;-73
2022/03/06 10:57:23;;;;;;;7.13;4.15;;;;;;;;;;10329490;28;20469;-72
2022/03/06 11:02:25;;;;;;;4.95;4.32;;;;;;;;;;10330163;28;20404;-72
2022/03/06 11:07:29;;;;;;;6.45;4.97;;;;;;;;;;10329759;28;20061;-73
2022/03/06 11:12:29;;;;;;;13.43;5.22;;;;;;;;;;10328033;28;20018;-72
2022/03/06 11:17:32;;;;;;;9.85;7.05;;;;;;;;;;10330641;28;20028;-71
2022/03/06 11:22:39;;;;;;;9.30;6.00;;;;;;;;;;10329291;28;20069;-71
2022/03/06 11:27:50;;;;;;;6.15;5.55;;;;;;;;;;10329316;28;20393;-72
2022/03/06 11:33:07;;;;;;;7.78;5.95;;;;;;;;;;10328940;28;20015;-72
2022/03/06 11:38:08;;;;;;;8.07;5.90;;;;;;;;;;10328390;28;20023;-72
2022/03/06 11:43:09;;;;;;;7.43;5.22;;;;;;;;;;10298167;28;20445;-72
2022/03/06 11:48:09;;;;;;;5.85;5.18;;;;;;;;;;10287779;28;20034;-71
2022/03/06 11:53:20;;;;;;;5.72;5.10;;;;;;;;;;10287910;28;20050;-71
2022/03/06 11:58:40;;;;;;;7.43;5.93;;;;;;;;;;10313551;28;20026;-71
2022/03/06 12:03:47;;;;;;;10.18;6.13;;;;;;;;;;10304547;28;20034;-72
2022/03/06 12:08:47;;;;;;;10.52;7.25;;;;;;;;;;10314861;28;20057;-71
2022/03/06 12:13:51;;;;;;;17.27;9.68;;;;;;;;;;10343597;28;20022;-72
2022/03/06 12:19:00;;;;;;;11.90;8.50;;;;;;;;;;10326395;28;20023;-72
2022/03/06 12:24:11;;;;;;;14.10;7.78;;;;;;;;;;10342732;28;20465;-71
2022/03/06 12:29:31;;;;;;;16.80;8.43;;;;;;;;;;10326702;28;20168;-73
2022/03/06 12:34:37;;;;;;;13.98;7.82;;;;;;;;;;10319722;28;20042;-71
2022/03/06 12:39:37;;;;;;;12.82;8.25;;;;;;;;;;10325191;28;20084;-70
2022/03/06 12:44:44;;;;;;;13.95;10.15;;;;;;;;;;10326337;28;20030;-72
2022/03/06 12:49:51;;;;;;;15.50;9.77;;;;;;;;;;10325769;28;20497;-73
2022/03/06 12:54:51;;;;;;;13.98;11.13;;;;;;;;;;10325692;28;20081;-71
2022/03/06 12:59:52;;;;;;;13.30;9.45;;;;;;;;;;10327256;28;20058;-70
2022/03/06 13:04:53;;;;;;;18.67;9.95;;;;;;;;;;10319359;28;20053;-75
2022/03/06 13:09:55;;;;;;;12.93;8.68;;;;;;;;;;10295921;28;20173;-70
2022/03/06 13:14:55;;;;;;;12.30;8.20;;;;;;;;;;10285895;28;20033;-72
2022/03/06 13:19:56;;;;;;;12.00;8.60;;;;;;;;;;10293862;28;20022;-71
2022/03/06 13:24:57;;;;;;;9.80;7.05;;;;;;;;;;10324955;28;20018;-71
2022/03/06 13:30:13;;;;;;;16.98;10.13;;;;;;;;;;10286093;28;20014;-71
2022/03/06 13:35:29;;;;;;;14.52;8.02;;;;;;;;;;10322351;28;20031;-70
2022/03/06 13:40:30;;;;;;;15.70;7.60;;;;;;;;;;10332543;28;20226;-71
2022/03/06 13:45:31;;;;;;;12.80;7.47;;;;;;;;;;10316228;28;20030;-72
2022/03/06 13:50:45;;;;;;;11.93;7.20;;;;;;;;;;10315727;28;20378;-72
2022/03/06 13:55:50;;;;;;;11.25;7.40;;;;;;;;;;10332267;28;20264;-72
2022/03/06 14:00:55;;;;;;;14.32;7.60;;;;;;;;;;10332843;28;20037;-73
2022/03/06 14:05:56;;;;;;;14.00;7.88;;;;;;;;;;10306918;28;20549;-72
2022/03/06 14:11:00;;;;;;;14.60;9.57;;;;;;;;;;10292126;28;20058;-72
2022/03/06 14:16:04;;;;;;;17.73;9.77;;;;;;;;;;10307475;28;20042;-71
2022/03/06 14:21:24;;;;;;;14.05;7.75;;;;;;;;;;10313756;28;20492;-72
2022/03/06 14:26:25;;;;;;;15.23;10.25;;;;;;;;;;10328395;28;20092;-72
2022/03/06 14:31:28;;;;;;;14.07;9.90;;;;;;;;;;10326287;28;20088;-72
2022/03/06 14:36:28;;;;;;;15.35;8.35;;;;;;;;;;10328911;28;20044;-72
2022/03/06 14:41:29;;;;;;;16.30;8.75;;;;;;;;;;10328179;28;20029;-69
2022/03/06 14:46:29;;;;;;;16.98;10.15;;;;;;;;;;10325713;28;20437;-77
2022/03/06 14:51:29;;;;;;;14.18;9.27;;;;;;;;;;10328056;28;20105;-70
2022/03/06 14:56:32;;;;;;;15.63;8.93;;;;;;;;;;10324236;28;20092;-70
2022/03/06 15:01:32;;;;;;;13.27;8.40;;;;;;;;;;10327410;28;20038;-69
2022/03/06 15:06:33;;;;;;;12.80;8.60;;;;;;;;;;10324831;28;20066;-74
2022/03/06 15:11:34;;;;;;;21.97;13.57;;;;;;;;;;10324479;28;20556;-74
2022/03/06 15:16:34;;;;;;;15.00;8.60;;;;;;;;;;10325287;28;20038;-74
2022/03/06 15:21:34;;;;;;;17.30;10.23;;;;;;;;;;10325947;28;20117;-74
2022/03/06 15:26:35;;;;;;;14.83;8.77;;;;;;;;;;10326392;28;20034;-73
2022/03/06 15:31:36;;;;;;;13.60;9.25;;;;;;;;;;10324479;28;20019;-74
2022/03/06 15:36:36;;;;;;;14.90;9.18;;;;;;;;;;10325527;28;20034;-72
2022/03/06 15:41:37;;;;;;;13.07;9.43;;;;;;;;;;10324701;28;20110;-74
2022/03/06 15:46:37;;;;;;;10.65;6.35;;;;;;;;;;10325262;28;20034;-73
2022/03/06 15:51:38;;;;;;;13.07;8.17;;;;;;;;;;10325857;28;20027;-74
2022/03/06 15:56:38;;;;;;;10.45;6.85;;;;;;;;;;10324231;28;20265;-70
2022/03/06 16:01:39;;;;;;;11.35;7.30;;;;;;;;;;10323781;28;20077;-74
2022/03/06 16:06:39;;;;;;;10.15;7.57;;;;;;;;;;10325674;28;20050;-70
2022/03/06 16:11:39;;;;;;;10.82;7.78;;;;;;;;;;10322372;28;20026;-71
2022/03/06 16:16:39;;;;;;;16.20;9.67;;;;;;;;;;10323785;28;20422;-71
2022/03/06 16:21:40;;;;;;;14.52;9.73;;;;;;;;;;10320272;28;20018;-73
2022/03/06 16:26:40;;;;;;;17.20;8.93;;;;;;;;;;10323927;28;20042;-71
2022/03/06 16:31:40;;;;;;;27.83;14.93;;;;;;;;;;10324964;28;20085;-70
2022/03/06 16:36:41;;;;;;;21.67;10.32;;;;;;;;;;10339546;28;20031;-72
2022/03/06 16:41:41;;;;;;;27.35;11.68;;;;;;;;;;10323978;28;20447;-72
2022/03/06 16:46:41;;;;;;;13.60;9.07;;;;;;;;;;10339629;28;20527;-71
2022/03/06 16:51:42;;;;;;;13.20;8.43;;;;;;;;;;10322015;28;20098;-70
2022/03/06 16:56:42;;;;;;;12.27;7.15;;;;;;;;;;10319057;28;20018;-71
2022/03/06 17:01:42;;;;;;;13.05;8.93;;;;;;;;;;10336307;28;20030;-69
2022/03/06 17:06:42;;;;;;;15.10;10.63;;;;;;;;;;10321621;28;20050;-71
2022/03/06 17:11:43;;;;;;;14.40;9.57;;;;;;;;;;10322688;28;20120;-70
2022/03/06 17:16:43;;;;;;;21.73;12.13;;;;;;;;;;10322604;28;20093;-70
2022/03/06 17:21:44;;;;;;;14.85;9.32;;;;;;;;;;10338867;28;20030;-71
2022/03/06 17:26:44;;;;;;;19.05;10.38;;;;;;;;;;10321517;28;20026;-71
2022/03/06 17:31:45;;;;;;;17.40;9.68;;;;;;;;;;10336939;28;20109;-70
2022/03/06 17:36:45;;;;;;;18.52;10.50;;;;;;;;;;10320399;28;20619;-71
2022/03/06 17:41:45;;;;;;;12.17;6.57;;;;;;;;;;10324385;28;20113;-71
2022/03/06 17:46:46;;;;;;;13.77;7.82;;;;;;;;;;10323943;28;20018;-71
2022/03/06 17:51:48;;;;;;;14.48;9.77;;;;;;;;;;10323376;28;20109;-71
2022/03/06 17:56:48;;;;;;;14.95;8.43;;;;;;;;;;10321633;28;20038;-71
2022/03/06 18:01:54;;;;;;;21.53;9.73;;;;;;;;;;10321631;28;20128;-71
2022/03/06 18:06:54;;;;;;;18.75;9.80;;;;;;;;;;10321604;28;20417;-70
2022/03/06 18:11:55;;;;;;;15.98;9.32;;;;;;;;;;10319200;28;20030;-71
2022/03/06 18:16:55;;;;;;;17.83;10.48;;;;;;;;;;10319087;28;20037;-71
2022/03/06 18:21:56;;;;;;;19.33;10.52;;;;;;;;;;10321484;28;20475;-72
2022/03/06 18:26:56;;;;;;;20.92;10.30;;;;;;;;;;10343850;28;20035;-72
2022/03/06 18:31:56;;;;;;;15.27;8.18;;;;;;;;;;10342833;28;20116;-71
2022/03/06 18:36:57;;;;;;;11.80;8.00;;;;;;;;;;10326852;28;20496;-70
2022/03/06 18:41:57;;;;;;;20.23;9.55;;;;;;;;;;10327236;28;20015;-70
2022/03/06 18:46:58;;;;;;;14.30;9.27;;;;;;;;;;10327101;28;20047;-74
2022/03/06 18:51:59;;;;;;;18.13;9.00;;;;;;;;;;10327696;28;20027;-72
2022/03/06 18:56:59;;;;;;;15.18;8.85;;;;;;;;;;10325644;28;20042;-75
2022/03/06 19:02:01;;;;;;;21.33;10.30;;;;;;;;;;10325692;28;20106;-71
2022/03/06 19:07:01;;;;;;;22.02;10.95;;;;;;;;;;10326570;28;20050;-75
2022/03/06 19:12:02;;;;;;;16.83;10.40;;;;;;;;;;10327133;28;20049;-70
2022/03/06 19:17:02;;;;;;;15.15;9.20;;;;;;;;;;10340868;28;20027;-72
2022/03/06 19:22:02;;;;;;;22.37;9.73;;;;;;;;;;10326264;28;20029;-71
2022/03/06 19:27:03;;;;;;;7.38;4.88;;;;;;;;;;10326028;28;20030;-71
2022/03/06 19:32:03;;;;;;;10.77;5.95;;;;;;;;;;10325678;28;20018;-71
2022/03/06 19:37:04;;;;;;;10.68;6.55;;;;;;;;;;10326009;28;20026;-72
2022/03/06 19:42:05;;;;;;;12.93;6.43;;;;;;;;;;10325490;28;20485;-73
2022/03/06 19:47:08;;;;;;;13.50;8.00;;;;;;;;;;10324818;28;20105;-70
2022/03/06 19:52:09;;;;;;;20.02;8.05;;;;;;;;;;10324928;28;20157;-69
2022/03/06 19:57:09;;;;;;;12.50;7.75;;;;;;;;;;10325092;28;20026;-71
2022/03/06 20:02:10;;;;;;;9.95;5.65;;;;;;;;;;10325615;28;20412;-72
2022/03/06 20:07:10;;;;;;;13.02;6.72;;;;;;;;;;10324312;28;20046;-72
2022/03/06 20:12:10;;;;;;;8.10;5.32;;;;;;;;;;10325764;28;20026;-70
2022/03/06 20:17:11;;;;;;;8.27;4.57;;;;;;;;;;10323651;28;20069;-72
2022/03/06 20:22:11;;;;;;;7.75;5.18;;;;;;;;;;10323675;28;20066;-71
2022/03/06 20:27:11;;;;;;;6.13;3.67;;;;;;;;;;10323404;28;20042;-74
2022/03/06 20:32:12;;;;;;;9.27;4.68;;;;;;;;;;10318506;28;20306;-71
2022/03/06 20:37:12;;;;;;;9.90;5.35;;;;;;;;;;10322042;28;20026;-73
2022/03/06 20:42:12;;;;;;;7.10;4.70;;;;;;;;;;10322529;28;20121;-71
2022/03/06 20:47:12;;;;;;;13.60;5.68;;;;;;;;;;10320898;28;20034;-71
2022/03/06 20:52:13;;;;;;;10.00;6.70;;;;;;;;;;10320127;28;20357;-71
2022/03/06 20:57:13;;;;;;;14.32;5.63;;;;;;;;;;10320956;28;20049;-71
2022/03/06 21:02:15;;;;;;;9.40;6.65;;;;;;;;;;10321213;28;20026;-72
2022/03/06 21:07:16;;;;;;;11.60;7.60;;;;;;;;;;10321417;28;20042;-75
2022/03/06 21:12:16;;;;;;;15.87;8.13;;;;;;;;;;10324738;28;20404;-73
2022/03/06 21:17:17;;;;;;;15.13;7.28;;;;;;;;;;10326613;28;20034;-70
2022/03/06 21:22:17;;;;;;;13.63;9.07;;;;;;;;;;10326368;28;20030;-71
2022/03/06 21:27:18;;;;;;;23.55;9.23;;;;;;;;;;10327355;28;20026;-71
2022/03/06 21:32:19;;;;;;;15.82;10.13;;;;;;;;;;10326007;28;20030;-72
2022/03/06 21:37:19;;;;;;;20.08;9.05;;;;;;;;;;10327490;28;20057;-71
2022/03/06 21:42:21;;;;;;;18.67;8.50;;;;;;;;;;10326400;28;20092;-71
2022/03/06 21:47:21;;;;;;;18.35;9.23;;;;;;;;;;10327252;28;20547;-72
2022/03/06 21:52:21;;;;;;;19.57;9.20;;;;;;;;;;10327478;28;20093;-72
2022/03/06 21:57:22;;;;;;;19.90;11.70;;;;;;;;;;10331810;28;20026;-74
2022/03/06 22:02:22;;;;;;;20.17;9.55;;;;;;;;;;10334551;28;20034;-73
2022/03/06 22:07:22;;;;;;;16.87;9.27;;;;;;;;;;10332941;28;20090;-74
2022/03/06 22:12:22;;;;;;;17.42;8.57;;;;;;;;;;10332875;28;20069;-73
2022/03/06 22:17:23;;;;;;;14.98;7.78;;;;;;;;;;10334267;28;20022;-71
2022/03/06 22:22:23;;;;;;;17.38;7.97;;;;;;;;;;10332934;28;20038;-73
2022/03/06 22:27:25;;;;;;;13.83;7.67;;;;;;;;;;10332789;28;20093;-74
2022/03/06 22:32:26;;;;;;;15.27;8.18;;;;;;;;;;10332057;28;20491;-73
2022/03/06 22:37:26;;;;;;;14.70;7.85;;;;;;;;;;10332439;28;20023;-73
2022/03/06 22:42:26;;;;;;;15.45;8.68;;;;;;;;;;10332672;28;20468;-70
2022/03/06 22:47:26;;;;;;;16.73;7.80;;;;;;;;;;10307648;28;20485;-72
2022/03/06 22:52:27;;;;;;;19.75;8.40;;;;;;;;;;10291628;28;20116;-72
2022/03/06 22:57:27;;;;;;;15.32;8.30;;;;;;;;;;10291303;28;20027;-72
2022/03/06 23:02:27;;;;;;;18.30;6.77;;;;;;;;;;10293020;28;20109;-73
2022/03/06 23:07:28;;;;;;;16.07;5.80;;;;;;;;;;10291175;28;20557;-74
2022/03/06 23:12:28;;;;;;;9.60;5.63;;;;;;;;;;10290667;28;20038;-72
2022/03/06 23:17:29;;;;;;;13.20;7.23;;;;;;;;;;10290348;28;20042;-72
2022/03/06 23:22:29;;;;;;;13.38;6.10;;;;;;;;;;10290501;28;20521;-72
2022/03/06 23:27:29;;;;;;;11.73;6.65;;;;;;;;;;10290204;28;20082;-72
2022/03/06 23:32:30;;;;;;;12.35;6.22;;;;;;;;;;10289880;28;20122;-72
2022/03/06 23:37:30;;;;;;;12.52;7.45;;;;;;;;;;10289820;28;20042;-72
2022/03/06 23:42:31;;;;;;;11.68;7.25;;;;;;;;;;10289630;28;20086;-71
2022/03/06 23:47:32;;;;;;;17.80;7.85;;;;;;;;;;10289396;28;20117;-72
2022/03/06 23:52:32;;;;;;;11.18;6.18;;;;;;;;;;10295995;28;20046;-71
2022/03/06 23:57:32;;;;;;;15.70;6.77;;;;;;;;;;10289027;28;20062;-72
